Time;durP1;ratioP1;P1;durP2;ratioP2;P2;SDS_P1;SDS_P2;PMS_P1;PMS_P2;Temp;Humidity;BMP_temperature;BMP_pressure;BME280_temperature;BME280_humidity;BME280_pressure;Samples;Min_cycle;Max_cycle;Signal;HPM_P1;HPM_P2
2021/09/25 00:00:33;;;;;;;4.43;3.97;;;22.40;58.40;;;;;;5133540;27;20578;-61
2021/09/25 00:03:01;;;;;;;4.97;3.72;;;22.40;58.50;;;;;;5133760;27;20064;-61
2021/09/25 00:05:37;;;;;;;4.97;3.45;;;22.40;58.40;;;;;;5136582;27;20046;-62
2021/09/25 00:08:03;;;;;;;5.30;3.97;;;22.40;58.30;;;;;;5136207;27;20019;-60
2021/09/25 00:10:30;;;;;;;4.78;3.35;;;22.40;58.40;;;;;;5117800;27;20069;-61
2021/09/25 00:12:57;;;;;;;5.85;4.25;;;22.40;58.30;;;;;;5134656;27;20494;-59
2021/09/25 00:15:23;;;;;;;7.10;4.28;;;22.40;58.30;;;;;;5136048;27;20023;-60
2021/09/25 00:17:49;;;;;;;5.40;3.83;;;22.40;58.30;;;;;;5136468;27;20066;-60
2021/09/25 00:20:18;;;;;;;4.68;3.88;;;22.40;58.30;;;;;;5135649;27;20803;-60
2021/09/25 00:22:44;;;;;;;5.03;3.85;;;22.40;58.30;;;;;;5136206;27;20435;-60
2021/09/25 00:25:10;;;;;;;5.05;3.75;;;22.40;58.20;;;;;;5135260;27;20476;-60
2021/09/25 00:27:37;;;;;;;4.93;3.90;;;22.40;58.20;;;;;;5136487;27;20409;-59
2021/09/25 00:30:06;;;;;;;5.03;3.88;;;22.40;58.20;;;;;;5135178;27;20023;-60
2021/09/25 00:32:32;;;;;;;5.93;3.58;;;22.40;58.20;;;;;;5136057;27;20110;-60
2021/09/25 00:34:57;;;;;;;4.80;4.10;;;22.40;58.20;;;;;;5135873;27;20023;-58
2021/09/25 00:37:23;;;;;;;6.10;4.57;;;22.40;58.20;;;;;;5135763;27;20027;-60
2021/09/25 00:39:49;;;;;;;5.38;4.03;;;22.40;58.20;;;;;;5136156;27;20111;-60
2021/09/25 00:42:14;;;;;;;4.80;4.00;;;22.40;58.20;;;;;;5135146;27;20472;-60
2021/09/25 00:44:40;;;;;;;4.90;3.85;;;22.40;58.20;;;;;;5135618;27;20404;-62
2021/09/25 00:47:06;;;;;;;7.22;5.32;;;22.40;58.20;;;;;;5099679;27;20031;-60
2021/09/25 00:49:32;;;;;;;4.53;3.97;;;22.40;58.20;;;;;;5135982;27;20027;-60
2021/09/25 00:51:57;;;;;;;4.35;3.70;;;22.40;58.10;;;;;;5135101;27;20019;-59
2021/09/25 00:54:23;;;;;;;5.55;3.97;;;22.40;58.10;;;;;;5135222;27;20035;-60
2021/09/25 00:56:49;;;;;;;3.85;3.45;;;22.40;58.10;;;;;;5135914;27;20064;-60
2021/09/25 00:59:16;;;;;;;5.50;3.35;;;22.40;58.70;;;;;;5134920;27;20472;-60
2021/09/25 01:01:43;;;;;;;4.82;3.40;;;22.40;58.00;;;;;;5134949;27;20059;-60
2021/09/25 01:04:09;;;;;;;5.35;3.80;;;22.40;58.70;;;;;;5135077;27;20038;-60
2021/09/25 01:06:35;;;;;;;3.92;3.35;;;22.40;58.10;;;;;;5116737;27;20038;-60
2021/09/25 01:09:01;;;;;;;5.15;3.40;;;22.40;58.10;;;;;;5134700;27;20023;-58
2021/09/25 01:11:27;;;;;;;4.05;3.33;;;22.40;58.00;;;;;;5134903;27;20068;-60
2021/09/25 01:13:54;;;;;;;5.90;3.88;;;22.40;58.10;;;;;;5135587;27;20027;-61
2021/09/25 01:16:21;;;;;;;4.68;3.67;;;22.40;58.00;;;;;;5134232;27;20031;-61
2021/09/25 01:18:47;;;;;;;3.97;3.53;;;22.30;58.00;;;;;;5135193;27;20038;-62
2021/09/25 01:21:13;;;;;;;7.28;3.78;;;22.40;58.10;;;;;;5134719;27;20019;-61
2021/09/25 01:23:39;;;;;;;4.28;3.60;;;22.40;58.10;;;;;;5135165;27;20045;-61
2021/09/25 01:26:05;;;;;;;4.45;3.60;;;22.40;58.00;;;;;;5134017;27;20383;-60
2021/09/25 01:28:33;;;;;;;4.70;3.20;;;22.40;58.00;;;;;;5134922;27;20085;-61
2021/09/25 01:31:00;;;;;;;4.03;3.38;;;22.40;57.90;;;;;;5134850;27;20102;-58
2021/09/25 01:33:30;;;;;;;5.40;3.92;;;22.40;58.00;;;;;;5134291;27;20031;-60
2021/09/25 01:35:56;;;;;;;4.97;3.55;;;22.30;57.90;;;;;;5134857;27;20027;-61
2021/09/25 01:38:22;;;;;;;5.18;4.18;;;22.40;58.00;;;;;;5134002;27;20103;-61
2021/09/25 01:40:48;;;;;;;4.30;3.72;;;22.40;57.90;;;;;;5134954;27;20019;-61
2021/09/25 01:43:15;;;;;;;4.13;3.65;;;22.30;57.90;;;;;;5133931;27;20031;-60
2021/09/25 01:45:41;;;;;;;5.22;3.25;;;22.30;57.90;;;;;;5134924;27;20020;-59
2021/09/25 01:48:07;;;;;;;3.90;3.50;;;22.40;57.90;;;;;;5134067;27;20036;-60
2021/09/25 01:50:33;;;;;;;4.10;3.55;;;22.30;57.80;;;;;;5116269;27;20035;-60
2021/09/25 01:52:58;;;;;;;5.32;3.60;;;22.30;57.80;;;;;;5134228;27;20027;-59
2021/09/25 01:55:24;;;;;;;5.47;3.60;;;22.30;57.90;;;;;;5133531;27;20383;-60
2021/09/25 01:57:50;;;;;;;4.43;3.42;;;22.40;57.90;;;;;;5134719;27;20479;-60
2021/09/25 02:00:15;;;;;;;4.53;3.53;;;22.30;57.80;;;;;;5133073;27;20051;-59
2021/09/25 02:02:41;;;;;;;4.95;3.08;;;22.30;57.80;;;;;;5134224;27;20033;-61
2021/09/25 02:05:07;;;;;;;5.65;3.40;;;22.30;57.80;;;;;;5115101;27;20425;-60
2021/09/25 02:07:33;;;;;;;4.78;3.25;;;22.30;57.80;;;;;;5134012;27;20190;-61
2021/09/25 02:09:59;;;;;;;3.70;3.15;;;22.30;57.80;;;;;;5133256;27;20132;-59
2021/09/25 02:12:24;;;;;;;4.15;3.75;;;22.30;57.70;;;;;;5133858;27;20030;-61
2021/09/25 02:14:50;;;;;;;4.32;3.35;;;22.30;57.70;;;;;;5134478;27;20479;-60
2021/09/25 02:17:16;;;;;;;3.58;3.10;;;22.30;57.70;;;;;;5133360;27;20023;-61
2021/09/25 02:19:42;;;;;;;4.32;3.40;;;22.30;57.70;;;;;;5115047;27;20027;-60
2021/09/25 02:22:08;;;;;;;4.63;3.40;;;22.30;57.70;;;;;;5131945;27;20019;-61
2021/09/25 02:24:33;;;;;;;3.97;3.10;;;22.30;57.80;;;;;;5134038;27;20864;-60
2021/09/25 02:27:00;;;;;;;4.10;3.33;;;22.30;57.80;;;;;;5133923;27;20019;-60
2021/09/25 02:29:26;;;;;;;4.22;3.22;;;22.30;57.80;;;;;;5132477;27;20058;-61
2021/09/25 02:31:52;;;;;;;4.28;3.33;;;22.30;57.70;;;;;;5132192;27;20110;-60
2021/09/25 02:34:18;;;;;;;4.28;3.00;;;22.30;57.80;;;;;;5131711;27;20114;-60
2021/09/25 02:36:44;;;;;;;3.88;2.72;;;22.30;57.70;;;;;;5131825;27;20019;-60
2021/09/25 02:39:09;;;;;;;4.40;3.65;;;22.30;57.70;;;;;;5131847;27;20043;-60
2021/09/25 02:41:35;;;;;;;3.78;3.38;;;22.30;57.70;;;;;;5113952;27;20471;-62
2021/09/25 02:44:05;;;;;;;3.85;3.25;;;22.30;57.70;;;;;;5132208;27;20031;-58
2021/09/25 02:46:31;;;;;;;3.10;2.80;;;22.30;57.70;;;;;;5131788;27;20019;-61
2021/09/25 02:48:56;;;;;;;4.15;2.78;;;22.30;57.70;;;;;;5131992;27;20027;-61
2021/09/25 02:51:23;;;;;;;4.90;2.80;;;22.30;57.70;;;;;;5132919;27;20080;-61
2021/09/25 02:53:48;;;;;;;5.05;3.58;;;22.30;57.70;;;;;;5115098;27;20023;-61
2021/09/25 02:56:14;;;;;;;4.00;3.35;;;22.30;57.60;;;;;;5132671;27;20105;-60
2021/09/25 02:58:40;;;;;;;4.15;3.10;;;22.30;57.60;;;;;;5132836;27;20121;-60
2021/09/25 03:01:06;;;;;;;3.83;2.92;;;22.30;57.60;;;;;;5132369;27;20043;-60
2021/09/25 03:03:31;;;;;;;3.40;2.97;;;22.30;57.60;;;;;;5114818;27;20084;-61
2021/09/25 03:05:57;;;;;;;4.03;3.47;;;22.30;57.60;;;;;;5133070;27;20023;-60
2021/09/25 03:08:23;;;;;;;4.07;3.55;;;22.30;57.50;;;;;;5132422;27;20038;-60
2021/09/25 03:10:48;;;;;;;4.57;3.85;;;22.30;57.50;;;;;;5133317;27;20077;-61
2021/09/25 03:13:14;;;;;;;3.72;3.20;;;22.30;57.50;;;;;;5132373;27;20031;-61
2021/09/25 03:15:40;;;;;;;3.22;2.85;;;22.30;57.50;;;;;;5133247;27;20027;-62
2021/09/25 03:18:06;;;;;;;4.50;3.28;;;22.30;57.50;;;;;;5131894;27;20027;-61
2021/09/25 03:20:32;;;;;;;4.53;3.35;;;22.30;57.50;;;;;;5133027;27;20035;-61
2021/09/25 03:22:57;;;;;;;3.97;3.05;;;22.30;57.40;;;;;;5133077;27;20073;-61
2021/09/25 03:25:23;;;;;;;4.72;3.35;;;22.30;57.40;;;;;;5132366;27;20031;-60
2021/09/25 03:27:53;;;;;;;5.00;3.60;;;22.30;57.50;;;;;;5132864;27;20053;-62
2021/09/25 03:30:20;;;;;;;3.67;3.10;;;22.30;57.40;;;;;;5131726;27;20019;-61
2021/09/25 03:32:46;;;;;;;3.70;3.13;;;22.30;57.50;;;;;;5132367;27;20372;-60
2021/09/25 03:35:11;;;;;;;3.85;3.22;;;22.30;57.40;;;;;;5131196;27;20023;-60
2021/09/25 03:37:37;;;;;;;5.65;3.65;;;22.30;57.40;;;;;;5132682;27;20378;-60
2021/09/25 03:40:03;;;;;;;3.72;3.30;;;22.30;57.40;;;;;;5132217;27;20106;-58
2021/09/25 03:42:29;;;;;;;5.85;3.50;;;22.30;57.40;;;;;;5132223;27;20027;-60
2021/09/25 03:44:55;;;;;;;4.97;3.53;;;22.30;57.30;;;;;;5132097;27;20133;-60
2021/09/25 03:47:20;;;;;;;4.35;3.20;;;22.30;57.30;;;;;;5113383;28;20031;-61
2021/09/25 03:49:46;;;;;;;3.22;2.65;;;22.30;57.30;;;;;;5132748;28;20027;-61
2021/09/25 03:52:12;;;;;;;3.78;3.03;;;22.30;57.30;;;;;;5131302;28;20098;-60
2021/09/25 03:54:37;;;;;;;6.70;3.40;;;22.30;57.30;;;;;;5132920;28;20035;-61
2021/09/25 03:57:04;;;;;;;4.43;3.03;;;22.30;57.30;;;;;;5132260;28;20023;-59
2021/09/25 03:59:29;;;;;;;3.58;3.22;;;22.30;57.20;;;;;;5132342;28;20136;-60
2021/09/25 04:01:55;;;;;;;3.08;2.78;;;22.30;57.30;;;;;;5132177;28;20102;-61
2021/09/25 04:04:21;;;;;;;4.45;3.15;;;22.30;57.30;;;;;;5131484;28;20042;-61
2021/09/25 04:06:46;;;;;;;3.90;2.80;;;22.20;57.20;;;;;;5132348;28;20024;-60
2021/09/25 04:09:12;;;;;;;4.88;3.28;;;22.30;57.30;;;;;;5131912;28;20019;-60
2021/09/25 04:11:38;;;;;;;3.70;2.70;;;22.30;57.20;;;;;;5132480;28;20028;-60
2021/09/25 04:14:03;;;;;;;3.67;3.00;;;22.30;57.20;;;;;;5132198;28;20031;-59
2021/09/25 04:16:29;;;;;;;3.90;3.50;;;22.20;57.20;;;;;;5131779;28;20088;-60
2021/09/25 04:18:55;;;;;;;4.80;3.20;;;22.20;57.10;;;;;;5132299;28;20106;-60
2021/09/25 04:21:21;;;;;;;3.67;2.80;;;22.30;57.20;;;;;;5131928;28;20102;-60
2021/09/25 04:23:46;;;;;;;4.95;3.25;;;22.20;57.20;;;;;;5131847;28;20224;-61
2021/09/25 04:26:12;;;;;;;3.95;3.13;;;22.30;57.20;;;;;;5132079;28;20023;-60
2021/09/25 04:28:38;;;;;;;3.78;3.00;;;22.20;57.20;;;;;;5113534;28;20379;-60
2021/09/25 04:31:04;;;;;;;4.03;2.85;;;22.20;57.10;;;;;;5131922;28;20084;-59
2021/09/25 04:33:30;;;;;;;4.35;2.97;;;22.30;57.20;;;;;;5131990;28;20455;-60
2021/09/25 04:35:55;;;;;;;4.25;3.33;;;22.30;57.20;;;;;;5132555;28;20023;-60
2021/09/25 04:38:21;;;;;;;3.15;2.80;;;22.20;57.10;;;;;;5131129;28;20031;-60
2021/09/25 04:40:47;;;;;;;3.78;3.42;;;22.20;57.10;;;;;;5132395;28;20094;-60
2021/09/25 04:43:12;;;;;;;3.28;2.75;;;22.30;57.20;;;;;;5131340;28;20034;-60
2021/09/25 04:45:38;;;;;;;7.53;3.47;;;22.20;57.10;;;;;;5132788;27;20038;-60
2021/09/25 04:48:04;;;;;;;4.38;3.00;;;22.20;57.10;;;;;;5117559;27;20031;-59
2021/09/25 04:50:30;;;;;;;4.15;3.42;;;22.20;57.10;;;;;;5135181;27;20028;-60
2021/09/25 04:53:13;;;;;;;4.55;2.78;;;22.20;57.10;;;;;;5117023;27;20023;-60
2021/09/25 04:55:40;;;;;;;3.70;2.92;;;22.20;57.10;;;;;;5135875;27;20486;-61
2021/09/25 04:58:07;;;;;;;3.15;2.85;;;22.30;57.10;;;;;;5135061;27;20027;-59
2021/09/25 05:00:33;;;;;;;3.30;2.70;;;22.20;57.10;;;;;;5135350;27;20039;-61
2021/09/25 05:02:59;;;;;;;3.38;2.55;;;22.20;57.10;;;;;;5135040;27;20042;-61
2021/09/25 05:05:25;;;;;;;3.38;3.05;;;22.20;57.10;;;;;;5135057;27;20031;-61
2021/09/25 05:07:51;;;;;;;3.35;2.70;;;22.20;57.10;;;;;;5135327;27;20446;-61
2021/09/25 05:10:17;;;;;;;6.50;3.50;;;22.20;56.40;;;;;;5134578;27;20380;-61
2021/09/25 05:12:43;;;;;;;3.97;3.13;;;22.20;55.00;;;;;;5135245;27;20035;-61
2021/09/25 05:15:09;;;;;;;3.95;3.50;;;22.10;53.00;;;;;;5134014;27;20043;-60
2021/09/25 05:17:35;;;;;;;8.10;3.70;;;22.10;52.70;;;;;;5134036;27;20084;-64
2021/09/25 05:20:06;;;;;;;7.93;4.40;;;22.10;52.80;;;;;;5133027;27;20027;-61
2021/09/25 05:22:31;;;;;;;6.03;3.70;;;22.00;51.60;;;;;;5114415;27;20019;-63
2021/09/25 05:24:57;;;;;;;5.10;3.90;;;22.10;53.40;;;;;;5133394;27;20478;-62
2021/09/25 05:27:23;;;;;;;11.95;4.03;;;22.10;54.90;;;;;;5132459;27;20061;-51
2021/09/25 05:29:49;;;;;;;5.38;3.20;;;22.00;55.30;;;;;;5132791;27;20130;-61
2021/09/25 05:32:15;;;;;;;7.90;4.20;;;22.00;55.50;;;;;;5135093;27;20514;-61
2021/09/25 05:34:43;;;;;;;8.25;4.32;;;22.10;58.40;;;;;;5132783;27;20073;-61
2021/09/25 05:37:12;;;;;;;10.48;3.45;;;22.20;58.40;;;;;;5114384;27;20019;-59
2021/09/25 05:39:38;;;;;;;6.88;3.05;;;22.30;58.10;;;;;;5133145;27;20046;-64
2021/09/25 05:42:04;;;;;;;6.32;3.25;;;22.30;57.80;;;;;;5133371;27;20023;-59
2021/09/25 05:44:30;;;;;;;4.85;3.17;;;22.30;57.80;;;;;;5111972;27;20031;-62
2021/09/25 05:46:56;;;;;;;5.45;3.20;;;22.20;55.70;;;;;;5133427;27;20047;-60
2021/09/25 05:49:22;;;;;;;6.78;3.40;;;22.10;54.90;;;;;;5132078;27;20035;-59
2021/09/25 05:51:48;;;;;;;6.78;4.03;;;22.20;57.50;;;;;;5133534;27;20066;-59
2021/09/25 05:54:14;;;;;;;6.50;3.45;;;22.20;56.50;;;;;;5132450;27;20038;-57
2021/09/25 05:56:39;;;;;;;7.78;3.63;;;22.20;56.60;;;;;;5132138;27;20058;-56
2021/09/25 05:59:05;;;;;;;7.32;3.42;;;22.20;56.30;;;;;;5130701;27;20027;-60
2021/09/25 06:01:31;;;;;;;8.30;3.92;;;22.30;57.20;;;;;;5133249;27;20043;-60
2021/09/25 06:03:57;;;;;;;5.13;3.20;;;22.30;56.80;;;;;;5134256;27;20031;-60
2021/09/25 06:06:22;;;;;;;8.57;3.65;;;22.30;56.80;;;;;;5133857;27;20033;-61
2021/09/25 06:08:48;;;;;;;5.72;3.10;;;22.30;57.00;;;;;;5134141;27;20461;-60
2021/09/25 06:11:14;;;;;;;5.55;3.00;;;22.30;57.00;;;;;;5133072;27;20080;-59
2021/09/25 06:13:39;;;;;;;6.55;3.30;;;22.30;57.20;;;;;;5125983;27;20461;-60
2021/09/25 06:16:05;;;;;;;8.27;3.45;;;22.30;57.30;;;;;;5114194;28;20027;-60
2021/09/25 06:18:31;;;;;;;6.07;3.65;;;22.30;56.70;;;;;;5116375;27;20480;-59
2021/09/25 06:20:57;;;;;;;6.82;3.42;;;22.20;55.20;;;;;;5134333;27;20077;-59
2021/09/25 06:23:22;;;;;;;5.75;3.45;;;22.20;54.30;;;;;;5133080;27;20047;-59
2021/09/25 06:25:48;;;;;;;5.30;3.42;;;22.20;54.00;;;;;;5133531;27;20031;-60
2021/09/25 06:28:13;;;;;;;5.45;3.38;;;22.20;53.40;;;;;;5133375;27;20038;-59
2021/09/25 06:30:42;;;;;;;4.30;3.20;;;22.20;53.30;;;;;;5134018;27;20035;-59
2021/09/25 06:33:11;;;;;;;5.05;3.75;;;22.20;53.00;;;;;;5132840;27;20478;-60
2021/09/25 06:35:37;;;;;;;7.03;3.95;;;22.10;52.10;;;;;;5133876;27;20035;-61
2021/09/25 06:38:04;;;;;;;5.65;4.00;;;22.20;52.10;;;;;;5133405;27;20034;-61
2021/09/25 06:40:29;;;;;;;4.95;3.50;;;22.20;52.30;;;;;;5133013;27;20049;-60
2021/09/25 06:42:55;;;;;;;6.72;3.88;;;22.20;51.90;;;;;;5133494;27;20051;-60
2021/09/25 06:45:21;;;;;;;5.00;3.80;;;22.20;51.70;;;;;;5132367;27;20444;-60
2021/09/25 06:47:47;;;;;;;6.40;3.92;;;22.20;52.00;;;;;;5133895;27;20451;-61
2021/09/25 06:50:13;;;;;;;4.15;3.70;;;22.10;51.70;;;;;;5132692;27;20106;-60
2021/09/25 06:52:39;;;;;;;5.32;4.25;;;22.20;51.40;;;;;;5133782;27;20027;-60
2021/09/25 06:55:05;;;;;;;5.30;4.03;;;22.20;51.40;;;;;;5133486;27;20114;-60
2021/09/25 06:57:31;;;;;;;5.07;4.00;;;22.20;51.50;;;;;;5132515;27;20085;-60
2021/09/25 06:59:57;;;;;;;4.97;3.92;;;22.20;51.40;;;;;;5132946;27;20039;-59
2021/09/25 07:02:24;;;;;;;6.15;4.70;;;22.20;51.50;;;;;;5132403;27;20031;-60
2021/09/25 07:04:49;;;;;;;5.10;4.05;;;22.20;51.50;;;;;;5133561;27;20032;-59
2021/09/25 07:07:15;;;;;;;8.73;4.60;;;22.20;51.60;;;;;;5132086;27;20403;-59
2021/09/25 07:09:45;;;;;;;6.35;4.32;;;22.00;51.70;;;;;;5132899;27;20125;-59
2021/09/25 07:12:12;;;;;;;7.22;4.85;;;22.00;52.40;;;;;;5132538;27;20099;-60
2021/09/25 07:14:37;;;;;;;4.78;4.00;;;22.00;51.90;;;;;;5111764;27;20028;-60
2021/09/25 07:17:03;;;;;;;8.00;4.68;;;22.10;51.60;;;;;;5114700;27;20027;-60
2021/09/25 07:19:29;;;;;;;7.47;4.60;;;22.10;51.50;;;;;;5131410;27;20031;-59
2021/09/25 07:21:55;;;;;;;6.20;4.60;;;22.10;51.60;;;;;;5133169;27;20023;-60
2021/09/25 07:24:22;;;;;;;6.38;4.38;;;22.10;51.90;;;;;;5132072;27;20441;-60
2021/09/25 07:26:47;;;;;;;6.55;4.20;;;22.10;51.60;;;;;;5132787;27;20027;-60
2021/09/25 07:29:13;;;;;;;6.47;5.00;;;22.10;51.60;;;;;;5132430;27;20039;-59
2021/09/25 07:31:39;;;;;;;5.05;3.97;;;22.10;51.70;;;;;;5132536;27;20032;-59
2021/09/25 07:34:04;;;;;;;9.32;5.88;;;22.20;51.80;;;;;;5132602;27;20038;-59
2021/09/25 07:36:30;;;;;;;5.82;4.57;;;22.20;51.80;;;;;;5131983;27;20031;-59
2021/09/25 07:38:56;;;;;;;7.55;3.90;;;22.10;51.90;;;;;;5132928;27;20058;-60
2021/09/25 07:41:23;;;;;;;6.45;4.18;;;22.20;52.10;;;;;;5131790;27;20037;-60
2021/09/25 07:43:48;;;;;;;5.05;4.18;;;22.10;52.00;;;;;;5122807;27;20074;-60
2021/09/25 07:46:14;;;;;;;6.53;4.50;;;22.20;52.30;;;;;;5129434;28;20058;-59
2021/09/25 07:48:40;;;;;;;10.45;4.32;;;22.20;52.20;;;;;;5132705;28;20023;-60
2021/09/25 07:51:05;;;;;;;5.78;4.20;;;22.20;52.40;;;;;;5132310;28;20380;-59
2021/09/25 07:53:31;;;;;;;5.75;4.13;;;22.10;52.60;;;;;;5131771;28;20021;-59
2021/09/25 07:55:57;;;;;;;5.25;4.07;;;22.20;52.60;;;;;;5132651;28;20019;-59
2021/09/25 07:58:22;;;;;;;5.35;4.28;;;22.20;53.00;;;;;;5131883;28;20031;-60
2021/09/25 08:00:51;;;;;;;6.65;4.28;;;22.20;52.80;;;;;;5131844;28;20035;-59
2021/09/25 08:03:17;;;;;;;6.85;4.20;;;22.10;52.80;;;;;;5132051;28;20031;-60
2021/09/25 08:05:43;;;;;;;5.97;3.78;;;22.10;53.30;;;;;;5132298;28;20380;-59
2021/09/25 08:08:09;;;;;;;5.72;4.00;;;22.10;52.80;;;;;;5132510;28;20472;-60
2021/09/25 08:10:35;;;;;;;5.65;4.28;;;22.20;53.00;;;;;;5131700;28;20038;-60
2021/09/25 08:13:00;;;;;;;6.78;3.90;;;22.10;53.10;;;;;;5132150;28;20027;-59
2021/09/25 08:15:26;;;;;;;5.78;3.42;;;22.10;53.40;;;;;;5113256;28;20043;-59
2021/09/25 08:17:52;;;;;;;5.43;4.40;;;22.20;53.00;;;;;;5131227;28;20047;-60
2021/09/25 08:20:18;;;;;;;6.78;4.40;;;22.10;53.30;;;;;;5113540;27;20045;-58
2021/09/25 08:22:45;;;;;;;5.88;4.07;;;22.10;54.30;;;;;;5135462;27;20045;-60
2021/09/25 08:25:11;;;;;;;7.93;4.13;;;22.10;54.60;;;;;;5136162;27;20149;-59
2021/09/25 08:27:37;;;;;;;6.90;3.17;;;22.20;54.50;;;;;;5135768;27;20027;-61
2021/09/25 08:30:08;;;;;;;6.30;3.75;;;22.20;54.70;;;;;;5136624;27;20033;-64
2021/09/25 08:32:34;;;;;;;9.10;4.03;;;22.30;54.80;;;;;;5135260;27;20162;-63
2021/09/25 08:34:59;;;;;;;5.35;3.53;;;22.30;54.90;;;;;;5135583;27;20027;-64
2021/09/25 08:37:25;;;;;;;6.85;3.30;;;22.30;54.90;;;;;;5135751;27;20027;-62
2021/09/25 08:39:51;;;;;;;4.80;3.42;;;22.30;54.90;;;;;;5136065;27;20451;-62
2021/09/25 08:42:18;;;;;;;4.57;3.30;;;22.30;54.80;;;;;;5135027;27;20035;-63
2021/09/25 08:44:49;;;;;;;5.07;3.80;;;22.30;54.80;;;;;;5121054;27;20035;-60
2021/09/25 08:47:17;;;;;;;8.48;3.67;;;22.30;55.10;;;;;;5135449;27;20089;-59
2021/09/25 08:49:43;;;;;;;6.50;3.45;;;22.30;55.50;;;;;;5135719;27;20527;-62
2021/09/25 08:52:09;;;;;;;12.55;4.53;;;22.40;55.40;;;;;;5135049;27;20023;-61
2021/09/25 08:54:34;;;;;;;8.75;3.85;;;22.40;55.60;;;;;;5134980;27;20031;-61
2021/09/25 08:57:03;;;;;;;6.45;3.63;;;22.40;55.90;;;;;;5135396;27;20021;-62
2021/09/25 08:59:29;;;;;;;7.32;3.30;;;22.40;56.10;;;;;;5134867;27;20059;-63
2021/09/25 09:01:55;;;;;;;14.30;4.38;;;22.40;56.00;;;;;;5135158;27;20127;-62
2021/09/25 09:04:21;;;;;;;7.95;3.35;;;22.40;55.90;;;;;;5135059;27;20031;-61
2021/09/25 09:06:49;;;;;;;9.38;3.00;;;22.40;55.90;;;;;;5135621;27;20076;-62
2021/09/25 09:09:14;;;;;;;11.50;3.42;;;22.40;55.90;;;;;;5135151;27;20452;-59
2021/09/25 09:11:48;;;;;;;9.95;3.55;;;22.40;56.20;;;;;;5134888;27;20106;-61
2021/09/25 09:14:16;;;;;;;7.03;3.30;;;22.50;56.20;;;;;;5136702;27;20062;-60
2021/09/25 09:16:42;;;;;;;10.63;3.80;;;22.50;56.20;;;;;;5135150;27;20035;-63
2021/09/25 09:19:08;;;;;;;8.88;3.25;;;22.60;56.20;;;;;;5135289;27;20023;-64
2021/09/25 09:21:34;;;;;;;10.10;3.13;;;22.60;56.30;;;;;;5134207;27;20095;-64
2021/09/25 09:24:09;;;;;;;6.78;3.63;;;22.60;56.60;;;;;;5116860;27;20050;-64
2021/09/25 09:26:37;;;;;;;12.55;4.28;;;22.60;56.20;;;;;;5134435;27;20608;-64
2021/09/25 09:29:06;;;;;;;8.90;5.13;;;22.10;55.20;;;;;;5131405;27;20027;-65
2021/09/25 09:31:32;;;;;;;8.98;4.68;;;21.80;56.30;;;;;;5133856;27;20503;-62
2021/09/25 09:34:01;;;;;;;7.38;4.10;;;21.60;57.00;;;;;;5116468;27;20034;-62
2021/09/25 09:36:32;;;;;;;7.45;4.30;;;21.60;57.20;;;;;;5133986;27;20050;-62
2021/09/25 09:39:15;;;;;;;9.27;4.40;;;21.50;57.30;;;;;;5114606;28;20031;-63
2021/09/25 09:41:45;;;;;;;8.30;4.75;;;21.50;57.20;;;;;;5131149;27;20207;-63
2021/09/25 09:44:20;;;;;;;5.38;4.10;;;21.50;57.50;;;;;;5134347;27;20034;-60
2021/09/25 09:46:50;;;;;;;7.43;4.65;;;21.60;57.60;;;;;;5134860;27;20024;-63
2021/09/25 09:49:20;;;;;;;7.80;4.53;;;21.70;57.80;;;;;;5116121;27;20026;-61
2021/09/25 09:51:47;;;;;;;12.30;4.43;;;21.80;57.50;;;;;;5134328;27;20032;-63
2021/09/25 09:54:44;;;;;;;8.48;4.53;;;21.90;57.80;;;;;;5134594;27;20027;-62
2021/09/25 09:57:13;;;;;;;7.03;4.03;;;22.00;57.00;;;;;;5112336;27;20475;-64
2021/09/25 09:59:41;;;;;;;5.90;4.05;;;21.90;57.20;;;;;;5121882;27;20020;-63
2021/09/25 10:02:07;;;;;;;7.22;4.40;;;21.90;57.10;;;;;;5135287;27;20039;-64
2021/09/25 10:04:34;;;;;;;7.60;3.85;;;22.10;56.80;;;;;;5135127;27;20050;-62
2021/09/25 10:07:00;;;;;;;6.50;3.50;;;22.30;56.60;;;;;;5117276;27;20019;-63
2021/09/25 10:09:29;;;;;;;10.20;4.28;;;22.40;56.50;;;;;;5133508;27;20467;-62
2021/09/25 10:12:04;;;;;;;5.43;3.92;;;22.40;56.40;;;;;;5134161;27;20446;-59
2021/09/25 10:14:33;;;;;;;6.93;3.30;;;22.50;56.50;;;;;;5133273;27;20397;-60
2021/09/25 10:17:05;;;;;;;5.50;3.65;;;22.50;56.50;;;;;;5134036;27;20042;-60
2021/09/25 10:19:32;;;;;;;9.55;3.80;;;22.60;56.40;;;;;;5132344;27;20027;-59
2021/09/25 10:22:03;;;;;;;8.48;4.85;;;22.60;56.30;;;;;;5134112;27;20031;-59
2021/09/25 10:24:31;;;;;;;3.75;3.30;;;22.60;56.20;;;;;;5133295;27;20039;-60
2021/09/25 10:27:00;;;;;;;5.75;3.30;;;22.60;56.20;;;;;;5133489;27;20027;-59
2021/09/25 10:29:27;;;;;;;5.82;3.03;;;22.70;56.20;;;;;;5121372;27;20038;-59
2021/09/25 10:32:14;;;;;;;5.07;3.45;;;22.70;56.20;;;;;;5133485;27;20050;-58
2021/09/25 10:35:04;;;;;;;4.25;3.10;;;22.70;56.20;;;;;;5132800;27;20091;-60
2021/09/25 10:37:38;;;;;;;7.78;3.08;;;22.70;56.20;;;;;;5132462;27;20031;-61
2021/09/25 10:40:05;;;;;;;4.85;3.40;;;22.70;56.50;;;;;;5133326;27;20027;-60
2021/09/25 10:43:06;;;;;;;7.65;3.35;;;22.70;56.50;;;;;;5132627;27;20084;-61
2021/09/25 10:45:35;;;;;;;8.00;3.63;;;22.70;56.50;;;;;;5119729;27;20048;-60
2021/09/25 10:48:04;;;;;;;4.53;3.15;;;22.80;56.60;;;;;;5131556;27;20075;-61
2021/09/25 10:50:30;;;;;;;5.30;3.35;;;22.80;56.50;;;;;;5132880;27;20030;-60
2021/09/25 10:53:25;;;;;;;4.00;2.78;;;22.80;56.40;;;;;;5135357;27;20032;-61
2021/09/25 10:55:53;;;;;;;8.85;3.25;;;22.90;56.60;;;;;;5112382;28;20031;-61
2021/09/25 10:58:29;;;;;;;6.05;3.90;;;22.90;56.70;;;;;;5127890;27;20603;-59
2021/09/25 11:01:01;;;;;;;4.80;3.17;;;23.00;56.90;;;;;;5128527;27;20039;-61
2021/09/25 11:03:47;;;;;;;5.13;3.17;;;23.00;56.90;;;;;;5132424;27;20428;-61
2021/09/25 11:06:41;;;;;;;6.40;3.05;;;23.00;56.80;;;;;;5133113;27;20038;-60
2021/09/25 11:09:29;;;;;;;5.85;3.10;;;23.00;56.60;;;;;;5128952;27;20440;-60
2021/09/25 11:12:09;;;;;;;6.45;2.80;;;23.00;57.00;;;;;;5127884;27;20083;-61
2021/09/25 11:14:47;;;;;;;5.00;3.17;;;23.00;57.00;;;;;;5131068;27;20392;-59
2021/09/25 11:17:15;;;;;;;5.32;3.13;;;23.00;57.00;;;;;;5120908;27;20057;-60
2021/09/25 11:19:58;;;;;;;4.28;2.90;;;23.00;56.90;;;;;;5129948;27;20161;-60
2021/09/25 11:22:29;;;;;;;6.75;3.38;;;23.00;57.20;;;;;;5132244;27;20031;-60
2021/09/25 11:25:01;;;;;;;6.25;3.28;;;23.00;57.30;;;;;;5132928;27;20486;-59
2021/09/25 11:27:30;;;;;;;4.18;3.15;;;23.00;57.20;;;;;;5132235;27;20031;-59
2021/09/25 11:30:31;;;;;;;3.65;2.60;;;23.00;57.50;;;;;;5132750;27;20023;-60
2021/09/25 11:32:59;;;;;;;5.43;2.90;;;23.00;57.50;;;;;;5029985;28;20781;-61
2021/09/25 11:35:34;;;;;;;4.82;3.00;;;23.00;57.50;;;;;;5112619;27;20043;-61
2021/09/25 11:38:03;;;;;;;6.25;3.30;;;23.00;57.60;;;;;;5132648;27;20031;-61
2021/09/25 11:40:33;;;;;;;6.07;2.80;;;23.00;57.60;;;;;;5132064;27;20052;-61
2021/09/25 11:43:01;;;;;;;5.05;3.08;;;23.00;57.60;;;;;;5113491;27;20490;-62
2021/09/25 11:45:31;;;;;;;3.67;2.78;;;23.00;57.60;;;;;;5131318;27;20384;-62
2021/09/25 11:47:57;;;;;;;3.75;2.60;;;23.10;57.30;;;;;;5132667;27;20057;-63
2021/09/25 11:50:27;;;;;;;5.30;3.00;;;23.10;58.00;;;;;;5131658;28;20070;-59
2021/09/25 11:52:59;;;;;;;4.20;3.60;;;23.10;59.10;;;;;;5132809;28;20054;-61
2021/09/25 11:55:26;;;;;;;5.38;2.88;;;23.20;60.20;;;;;;5132765;27;20159;-61
2021/09/25 11:58:00;;;;;;;4.85;2.80;;;23.10;59.50;;;;;;5137050;27;20059;-62
2021/09/25 12:00:32;;;;;;;7.43;3.05;;;23.10;59.80;;;;;;5135454;27;20490;-62
2021/09/25 12:03:00;;;;;;;5.68;3.13;;;23.10;60.10;;;;;;5136945;27;20031;-63
2021/09/25 12:05:40;;;;;;;6.15;3.40;;;23.10;60.20;;;;;;5135671;27;20042;-62
2021/09/25 12:08:12;;;;;;;7.35;3.65;;;23.10;61.10;;;;;;5136793;27;20168;-62
2021/09/25 12:10:40;;;;;;;5.13;3.50;;;23.00;61.10;;;;;;5135878;27;20105;-62
2021/09/25 12:13:18;;;;;;;11.82;3.78;;;23.00;61.30;;;;;;5137120;27;20027;-61
2021/09/25 12:15:46;;;;;;;6.25;3.22;;;23.00;61.30;;;;;;5136527;27;20031;-62
2021/09/25 12:18:14;;;;;;;7.38;3.35;;;23.00;61.50;;;;;;5136119;27;20378;-62
2021/09/25 12:20:45;;;;;;;5.93;3.50;;;23.00;61.50;;;;;;5135648;27;20094;-62
2021/09/25 12:23:16;;;;;;;4.45;3.13;;;23.00;61.70;;;;;;5136254;27;20031;-62
2021/09/25 12:25:42;;;;;;;4.53;3.25;;;23.00;61.70;;;;;;5135179;27;20039;-62
2021/09/25 12:28:29;;;;;;;12.60;4.78;;;22.90;62.00;;;;;;5136383;27;20453;-62
2021/09/25 12:30:57;;;;;;;5.25;2.67;;;22.80;62.30;;;;;;5136308;27;20080;-62
2021/09/25 12:33:23;;;;;;;6.13;2.72;;;22.80;62.30;;;;;;5135117;27;20059;-60
2021/09/25 12:36:10;;;;;;;8.35;3.28;;;22.80;62.40;;;;;;5135713;27;20112;-61
2021/09/25 12:38:40;;;;;;;7.18;3.22;;;22.80;62.60;;;;;;5128328;27;20027;-62
2021/09/25 12:41:09;;;;;;;4.95;2.67;;;22.80;62.60;;;;;;5136052;27;20026;-62
2021/09/25 12:43:40;;;;;;;7.28;3.10;;;22.80;62.50;;;;;;5134980;27;20087;-62
2021/09/25 12:46:07;;;;;;;;;;;22.90;62.40;;;;;;5136652;27;20057;-62
2021/09/25 12:48:33;;;;;;;3.08;2.55;;;22.90;62.20;;;;;;5134871;27;19917;-62